^^
Grace C. Lehan Memorial Weather Station Historical Data
Daily Summary for October 18, 2021 Units:  Both    English   Metric
Daily Weekly Monthly Yearly
  High: Low: Average:
Temperature: 61.7 °F /  16.5 °C 45.2 °F /  7.3 °C 51.1 °F /  10.6 °C
Dew Point: 50.2 °F /  10.1 °C 39.6 °F /  4.2 °C 43.4 °F /  6.3 °C
Humidity: 88.8% 61.7% 75%
Wind Speed: 14mph /  22.5km/h - 1.7mph /  2.7km/h
Wind Gust: 17mph /  27.4km/h - -
Wind- - WNW
Pressure: 29.89 in /  1012.1 hPa 29.73 in /  1006.7 hPa -
Precipitation: 0.00 in /  0 mm    
 
 
Tabular Data for October 18, 2021
Time Temperature Dew Point Pressure Wind Wind Speed Wind Gust Humidity Rainfall Rate (Hourly) solar
00:04 50.2 °F /  10.1 °C 45 °F /  7.2 °C 29.75in /  1007.3hPa West 0.7mph /  1.1km/h 3mph /  4.8km/h 82% 0.00in /  0mm 0 W/m2
00:09 50.3 °F /  10.2 °C 45 °F /  7.2 °C 29.75in /  1007.3hPa West 1.1mph /  1.8km/h 6mph /  9.7km/h 82% 0.00in /  0mm 0 W/m2
00:14 50.2 °F /  10.1 °C 44.9 °F /  7.2 °C 29.75in /  1007.3hPa West 1.3mph /  2.1km/h 6mph /  9.7km/h 82% 0.00in /  0mm 0 W/m2
00:19 50.2 °F /  10.1 °C 44.8 °F /  7.1 °C 29.75in /  1007.3hPa West 0.1mph /  0.2km/h 6mph /  9.7km/h 81.5% 0.00in /  0mm 0 W/m2
00:24 50.1 °F /  10.1 °C 44.6 °F /  7 °C 29.75in /  1007.3hPa West 1.1mph /  1.8km/h 6mph /  9.7km/h 81.3% 0.00in /  0mm 0 W/m2
00:29 50.1 °F /  10.1 °C 44.5 °F /  6.9 °C 29.75in /  1007.3hPa West 0.2mph /  0.3km/h 6mph /  9.7km/h 81% 0.00in /  0mm 0 W/m2
00:34 50.1 °F /  10.1 °C 44.5 °F /  6.9 °C 29.75in /  1007.3hPa West 1mph /  1.6km/h 8mph /  12.9km/h 81% 0.00in /  0mm 0 W/m2
00:39 50.1 °F /  10.1 °C 44.5 °F /  6.9 °C 29.75in /  1007.3hPa WNW 2mph /  3.2km/h 8mph /  12.9km/h 81% 0.00in /  0mm 0 W/m2
00:44 50.3 °F /  10.2 °C 44.6 °F /  7 °C 29.75in /  1007.3hPa WNW 1.6mph /  2.6km/h 9mph /  14.5km/h 81% 0.00in /  0mm 0 W/m2
00:49 50.4 °F /  10.2 °C 44.5 °F /  6.9 °C 29.75in /  1007.3hPa WNW 2.3mph /  3.7km/h 10mph /  16.1km/h 80% 0.00in /  0mm 0 W/m2
00:54 50.6 °F /  10.3 °C 44.6 °F /  7 °C 29.75in /  1007.3hPa West 1.5mph /  2.4km/h 10mph /  16.1km/h 79.7% 0.00in /  0mm 0 W/m2
00:59 50.8 °F /  10.4 °C 44.5 °F /  6.9 °C 29.75in /  1007.3hPa WNW 0.3mph /  0.5km/h 10mph /  16.1km/h 79% 0.00in /  0mm 0 W/m2
01:04 50.8 °F /  10.4 °C 44.5 °F /  6.9 °C 29.75in /  1007.3hPa WNW 1mph /  1.6km/h 10mph /  16.1km/h 79% 0.00in /  0mm 0 W/m2
01:09 50.9 °F /  10.5 °C 44.6 °F /  7 °C 29.75in /  1007.3hPa Calm   4mph /  6.4km/h 79% 0.00in /  0mm 0 W/m2
01:14 50.9 °F /  10.5 °C 44.7 °F /  7.1 °C 29.75in /  1007.3hPa Calm   4mph /  6.4km/h 79.2% 0.00in /  0mm 0 W/m2
01:19 50.9 °F /  10.5 °C 44.8 °F /  7.1 °C 29.75in /  1007.3hPa Calm   4mph /  6.4km/h 79.6% 0.00in /  0mm 0 W/m2
01:24 50.8 °F /  10.4 °C 44.9 °F /  7.2 °C 29.76in /  1007.7hPa Calm   4mph /  6.4km/h 80% 0.00in /  0mm 0 W/m2
01:29 50.8 °F /  10.4 °C 44.9 °F /  7.2 °C 29.75in /  1007.3hPa Calm   4mph /  6.4km/h 80.1% 0.00in /  0mm 0 W/m2
01:34 50.8 °F /  10.4 °C 45.2 °F /  7.3 °C 29.75in /  1007.3hPa Calm   4mph /  6.4km/h 81% 0.00in /  0mm 0 W/m2
01:39 50.7 °F /  10.4 °C 45.2 °F /  7.3 °C 29.75in /  1007.3hPa Calm     81.4% 0.00in /  0mm 0 W/m2
01:44 50.6 °F /  10.3 °C 45.3 °F /  7.4 °C 29.75in /  1007.3hPa Calm     81.8% 0.00in /  0mm 0 W/m2
01:49 50.6 °F /  10.3 °C 45 °F /  7.2 °C 29.75in /  1007.3hPa Calm     81.1% 0.00in /  0mm 0 W/m2
01:54 50.5 °F /  10.3 °C 45.2 °F /  7.3 °C 29.75in /  1007.3hPa Calm     82% 0.00in /  0mm 0 W/m2
01:59 50.5 °F /  10.3 °C 45.2 °F /  7.3 °C 29.75in /  1007.3hPa Calm     82% 0.00in /  0mm 0 W/m2
02:04 50.5 °F /  10.3 °C 45.2 °F /  7.3 °C 29.75in /  1007.3hPa Calm   1mph /  1.6km/h 81.8% 0.00in /  0mm 0 W/m2
02:09 50.4 °F /  10.2 °C 45 °F /  7.2 °C 29.75in /  1007.3hPa West 0.6mph /  1km/h 4mph /  6.4km/h 81.6% 0.00in /  0mm 0 W/m2
02:14 50.4 °F /  10.2 °C 44.8 °F /  7.1 °C 29.75in /  1007.3hPa NW 1.8mph /  2.9km/h 9mph /  14.5km/h 80.9% 0.00in /  0mm 0 W/m2
02:19 50.4 °F /  10.2 °C 44.5 °F /  6.9 °C 29.75in /  1007.3hPa WNW 1.3mph /  2.1km/h 9mph /  14.5km/h 80% 0.00in /  0mm 0 W/m2
02:24 50.5 °F /  10.3 °C 44.3 °F /  6.8 °C 29.75in /  1007.3hPa WNW 0.5mph /  0.8km/h 9mph /  14.5km/h 79.3% 0.00in /  0mm 0 W/m2
02:29 50.5 °F /  10.3 °C 44.2 °F /  6.8 °C 29.75in /  1007.3hPa Calm   9mph /  14.5km/h 79% 0.00in /  0mm 0 W/m2
02:34 50.5 °F /  10.3 °C 44.2 °F /  6.8 °C 29.75in /  1007.3hPa Calm   9mph /  14.5km/h 79% 0.00in /  0mm 0 W/m2
02:39 50.5 °F /  10.3 °C 44.2 °F /  6.8 °C 29.75in /  1007.3hPa Calm     79% 0.00in /  0mm 0 W/m2
02:44 50.4 °F /  10.2 °C 44.1 °F /  6.7 °C 29.75in /  1007.3hPa WNW 0.9mph /  1.4km/h 4mph /  6.4km/h 79% 0.00in /  0mm 0 W/m2
02:49 50.3 °F /  10.2 °C 44.1 °F /  6.7 °C 29.75in /  1007.3hPa West 0.3mph /  0.5km/h 10mph /  16.1km/h 79% 0.00in /  0mm 0 W/m2
02:54 50.2 °F /  10.1 °C 43.9 °F /  6.6 °C 29.75in /  1007.3hPa Calm   10mph /  16.1km/h 79% 0.00in /  0mm 0 W/m2
02:59 50.1 °F /  10.1 °C 43.8 °F /  6.6 °C 29.75in /  1007.3hPa WNW 1.6mph /  2.6km/h 10mph /  16.1km/h 79% 0.00in /  0mm 0 W/m2
03:04 49.9 °F /  9.9 °C 43.6 °F /  6.4 °C 29.74in /  1007hPa WNW 1.6mph /  2.6km/h 10mph /  16.1km/h 78.8% 0.00in /  0mm 0 W/m2
03:09 49.9 °F /  9.9 °C 43.4 °F /  6.3 °C 29.74in /  1007hPa WNW 0.9mph /  1.4km/h 6mph /  9.7km/h 78.2% 0.00in /  0mm 0 W/m2
03:14 49.9 °F /  9.9 °C 43.3 °F /  6.3 °C 29.74in /  1007hPa WNW 0.1mph /  0.2km/h 6mph /  9.7km/h 78% 0.00in /  0mm 0 W/m2
03:19 49.8 °F /  9.9 °C 43.2 °F /  6.2 °C 29.74in /  1007hPa WNW 0.6mph /  1km/h 6mph /  9.7km/h 78% 0.00in /  0mm 0 W/m2
03:24 49.8 °F /  9.9 °C 43.2 °F /  6.2 °C 29.74in /  1007hPa WNW 0.3mph /  0.5km/h 6mph /  9.7km/h 78% 0.00in /  0mm 0 W/m2
03:29 49.7 °F /  9.8 °C 43 °F /  6.1 °C 29.74in /  1007hPa NW 0.7mph /  1.1km/h 6mph /  9.7km/h 77.7% 0.00in /  0mm 0 W/m2
03:34 49.7 °F /  9.8 °C 42.9 °F /  6.1 °C 29.75in /  1007.3hPa NW 0.1mph /  0.2km/h 6mph /  9.7km/h 77.5% 0.00in /  0mm 0 W/m2
03:39 49.6 °F /  9.8 °C 42.8 °F /  6 °C 29.75in /  1007.3hPa NW 0.2mph /  0.3km/h 3mph /  4.8km/h 77.2% 0.00in /  0mm 0 W/m2
03:44 49.5 °F /  9.7 °C 42.6 °F /  5.9 °C 29.75in /  1007.3hPa NW 0.3mph /  0.5km/h 4mph /  6.4km/h 77% 0.00in /  0mm 0 W/m2
03:49 49.4 °F /  9.7 °C 42.9 °F /  6.1 °C 29.75in /  1007.3hPa NW 1.6mph /  2.6km/h 7mph /  11.3km/h 78% 0.00in /  0mm 0 W/m2
03:54 49.4 °F /  9.7 °C 42.6 °F /  5.9 °C 29.75in /  1007.3hPa WNW 0.9mph /  1.4km/h 7mph /  11.3km/h 77.3% 0.00in /  0mm 0 W/m2
03:59 49.3 °F /  9.6 °C 42.4 °F /  5.8 °C 29.75in /  1007.3hPa WNW 1.1mph /  1.8km/h 9mph /  14.5km/h 77% 0.00in /  0mm 0 W/m2
04:09 49.3 °F /  9.6 °C 42.1 °F /  5.6 °C 29.75in /  1007.3hPa West 0.1mph /  0.2km/h 3mph /  4.8km/h 76% 0.00in /  0mm 0 W/m2
04:14 49.3 °F /  9.6 °C 42.1 °F /  5.6 °C 29.75in /  1007.3hPa Calm   3mph /  4.8km/h 76% 0.00in /  0mm 0 W/m2
04:19 49.2 °F /  9.6 °C 42.2 °F /  5.7 °C 29.75in /  1007.3hPa Calm   3mph /  4.8km/h 76.7% 0.00in /  0mm 0 W/m2
04:24 49.1 °F /  9.5 °C 42.2 °F /  5.7 °C 29.75in /  1007.3hPa Calm   3mph /  4.8km/h 77% 0.00in /  0mm 0 W/m2
04:29 48.9 °F /  9.4 °C 42.1 °F /  5.6 °C 29.75in /  1007.3hPa Calm   3mph /  4.8km/h 77% 0.00in /  0mm 0 W/m2
04:34 48.7 °F /  9.3 °C 42.1 °F /  5.6 °C 29.75in /  1007.3hPa Calm   3mph /  4.8km/h 77.8% 0.00in /  0mm 0 W/m2
04:39 48.6 °F /  9.2 °C 42 °F /  5.6 °C 29.75in /  1007.3hPa Calm     78% 0.00in /  0mm 0 W/m2
04:44 48.4 °F /  9.1 °C 42.1 °F /  5.6 °C 29.75in /  1007.3hPa Calm     78.9% 0.00in /  0mm 0 W/m2
04:49 48.2 °F /  9 °C 42 °F /  5.6 °C 29.75in /  1007.3hPa Calm   1mph /  1.6km/h 79% 0.00in /  0mm 0 W/m2
04:54 47.9 °F /  8.8 °C 42 °F /  5.6 °C 29.75in /  1007.3hPa Calm   1mph /  1.6km/h 80% 0.00in /  0mm 0 W/m2
04:59 47.7 °F /  8.7 °C 42 °F /  5.6 °C 29.75in /  1007.3hPa Calm   1mph /  1.6km/h 80.4% 0.00in /  0mm 0 W/m2
05:04 47.5 °F /  8.6 °C 42 °F /  5.6 °C 29.75in /  1007.3hPa Calm   1mph /  1.6km/h 81% 0.00in /  0mm 0 W/m2
05:09 47.3 °F /  8.5 °C 42 °F /  5.6 °C 29.75in /  1007.3hPa Calm     81.7% 0.00in /  0mm 0 W/m2
05:14 47.1 °F /  8.4 °C 41.9 °F /  5.5 °C 29.75in /  1007.3hPa Calm     82% 0.00in /  0mm 0 W/m2
05:19 46.9 °F /  8.3 °C 41.8 °F /  5.4 °C 29.75in /  1007.3hPa Calm     82.2% 0.00in /  0mm 0 W/m2
05:24 46.8 °F /  8.2 °C 41.9 °F /  5.5 °C 29.75in /  1007.3hPa Calm     83% 0.00in /  0mm 0 W/m2
05:29 46.7 °F /  8.2 °C 41.8 °F /  5.4 °C 29.75in /  1007.3hPa Calm     83% 0.00in /  0mm 0 W/m2
05:34 46.6 °F /  8.1 °C 41.7 °F /  5.4 °C 29.75in /  1007.3hPa Calm     83% 0.00in /  0mm 0 W/m2
05:39 46.5 °F /  8.1 °C 41.7 °F /  5.4 °C 29.75in /  1007.3hPa Calm     83.1% 0.00in /  0mm 0 W/m2
05:44 46.5 °F /  8.1 °C 41.9 °F /  5.5 °C 29.75in /  1007.3hPa Calm     84% 0.00in /  0mm 0 W/m2
05:49 46.4 °F /  8 °C 41.8 °F /  5.4 °C 29.75in /  1007.3hPa West 0.1mph /  0.2km/h 4mph /  6.4km/h 84% 0.00in /  0mm 0 W/m2
05:54 46.3 °F /  7.9 °C 41.7 °F /  5.4 °C 29.75in /  1007.3hPa West 0.2mph /  0.3km/h 4mph /  6.4km/h 84% 0.00in /  0mm 0 W/m2
05:59 46.3 °F /  7.9 °C 41.7 °F /  5.4 °C 29.75in /  1007.3hPa West 0.3mph /  0.5km/h 5mph /  8km/h 84% 0.00in /  0mm 0 W/m2
06:04 46.2 °F /  7.9 °C 41.7 °F /  5.4 °C 29.76in /  1007.7hPa Calm   5mph /  8km/h 84.3% 0.00in /  0mm 0 W/m2
06:09 46.2 °F /  7.9 °C 41.9 °F /  5.5 °C 29.76in /  1007.7hPa Calm     85% 0.00in /  0mm 0 W/m2
06:14 46.1 °F /  7.8 °C 41.8 °F /  5.4 °C 29.76in /  1007.7hPa West 0.1mph /  0.2km/h 2mph /  3.2km/h 85% 0.00in /  0mm 0 W/m2
06:19 46 °F /  7.8 °C 41.7 °F /  5.4 °C 29.76in /  1007.7hPa Calm   2mph /  3.2km/h 85% 0.00in /  0mm 0 W/m2
06:24 45.8 °F /  7.7 °C 41.9 °F /  5.5 °C 29.76in /  1007.7hPa West 0.2mph /  0.3km/h 3mph /  4.8km/h 86% 0.00in /  0mm 0 W/m2
06:29 45.6 °F /  7.6 °C 41.7 °F /  5.4 °C 29.76in /  1007.7hPa Calm   3mph /  4.8km/h 86% 0.00in /  0mm 0 W/m2
06:34 45.5 °F /  7.5 °C 41.5 °F /  5.3 °C 29.77in /  1008hPa Calm   3mph /  4.8km/h 86% 0.00in /  0mm 0 W/m2
06:39 45.3 °F /  7.4 °C 41.5 °F /  5.3 °C 29.77in /  1008hPa West 0.1mph /  0.2km/h 2mph /  3.2km/h 86.3% 0.00in /  0mm 0 W/m2
06:44 45.2 °F /  7.3 °C 41.6 °F /  5.3 °C 29.77in /  1008hPa Calm   2mph /  3.2km/h 87% 0.00in /  0mm 0 W/m2
06:49 45.2 °F /  7.3 °C 41.6 °F /  5.3 °C 29.76in /  1007.7hPa West 0.2mph /  0.3km/h 3mph /  4.8km/h 87% 0.00in /  0mm 0 W/m2
06:54 45.2 °F /  7.3 °C 41.8 °F /  5.4 °C 29.76in /  1007.7hPa West 0.1mph /  0.2km/h 3mph /  4.8km/h 87.9% 0.00in /  0mm 0 W/m2
06:59 45.2 °F /  7.3 °C 41.9 °F /  5.5 °C 29.76in /  1007.7hPa Calm   3mph /  4.8km/h 88% 0.00in /  0mm 0 W/m2
07:04 45.4 °F /  7.4 °C 42 °F /  5.6 °C 29.76in /  1007.7hPa Calm   3mph /  4.8km/h 88% 0.00in /  0mm 0 W/m2
07:09 45.5 °F /  7.5 °C 42.1 °F /  5.6 °C 29.76in /  1007.7hPa Calm     88% 0.00in /  0mm 0 W/m2
07:14 45.6 °F /  7.6 °C 42.2 °F /  5.7 °C 29.76in /  1007.7hPa West 0.1mph /  0.2km/h 3mph /  4.8km/h 88% 0.00in /  0mm 7 W/m2
07:19 45.7 °F /  7.6 °C 42.3 °F /  5.7 °C 29.76in /  1007.7hPa Calm   3mph /  4.8km/h 88% 0.00in /  0mm 9 W/m2
07:24 45.8 °F /  7.7 °C 42.5 °F /  5.8 °C 29.76in /  1007.7hPa Calm   3mph /  4.8km/h 88% 0.00in /  0mm 14 W/m2
07:29 45.9 °F /  7.7 °C 42.6 °F /  5.9 °C 29.77in /  1008hPa Calm   3mph /  4.8km/h 88% 0.00in /  0mm 12 W/m2
07:34 46 °F /  7.8 °C 42.9 °F /  6.1 °C 29.77in /  1008hPa Calm   3mph /  4.8km/h 88.8% 0.00in /  0mm 21 W/m2
07:39 46.1 °F /  7.8 °C 42.8 °F /  6 °C 29.77in /  1008hPa Calm     88% 0.00in /  0mm 37 W/m2
07:44 46.3 °F /  7.9 °C 43 °F /  6.1 °C 29.77in /  1008hPa West 0.2mph /  0.3km/h 5mph /  8km/h 88% 0.00in /  0mm 26 W/m2
07:49 46.5 °F /  8.1 °C 43.2 °F /  6.2 °C 29.77in /  1008hPa Calm   5mph /  8km/h 88% 0.00in /  0mm 25 W/m2
07:54 46.7 °F /  8.2 °C 43.4 °F /  6.3 °C 29.77in /  1008hPa Calm   5mph /  8km/h 88% 0.00in /  0mm 25 W/m2
07:59 46.9 °F /  8.3 °C 43.2 °F /  6.2 °C 29.77in /  1008hPa Calm   5mph /  8km/h 87% 0.00in /  0mm 28 W/m2
08:00 47 °F /  8.3 °C 43.3 °F /  6.3 °C 29.77in /  1008hPa Calm   5mph /  8km/h 87% 0.00in /  0mm 56 W/m2
08:09 47.3 °F /  8.5 °C 43.7 °F /  6.5 °C 29.77in /  1008hPa West 0.1mph /  0.2km/h 2mph /  3.2km/h 87% 0.00in /  0mm 42 W/m2
08:14 47.6 °F /  8.7 °C 43.9 °F /  6.6 °C 29.77in /  1008hPa Calm   2mph /  3.2km/h 87% 0.00in /  0mm 44 W/m2
08:19 47.8 °F /  8.8 °C 44.1 °F /  6.7 °C 29.77in /  1008hPa Calm   2mph /  3.2km/h 87% 0.00in /  0mm 58 W/m2
08:24 48 °F /  8.9 °C 44.2 °F /  6.8 °C 29.77in /  1008hPa Calm   2mph /  3.2km/h 86.6% 0.00in /  0mm 74 W/m2
08:29 48.3 °F /  9.1 °C 44.6 °F /  7 °C 29.77in /  1008hPa Calm   2mph /  3.2km/h 86.9% 0.00in /  0mm 70 W/m2
08:34 48.5 °F /  9.2 °C 44.5 °F /  6.9 °C 29.77in /  1008hPa Calm   2mph /  3.2km/h 85.9% 0.00in /  0mm 40 W/m2
08:39 48.6 °F /  9.2 °C 44.3 °F /  6.8 °C 29.77in /  1008hPa Calm     85% 0.00in /  0mm 98 W/m2
08:44 48.9 °F /  9.4 °C 44.8 °F /  7.1 °C 29.77in /  1008hPa Calm     85.8% 0.00in /  0mm 121 W/m2
08:49 49.1 °F /  9.5 °C 44.8 °F /  7.1 °C 29.78in /  1008.4hPa WSW 1.1mph /  1.8km/h 6mph /  9.7km/h 85% 0.00in /  0mm 127 W/m2
08:54 49.5 °F /  9.7 °C 45 °F /  7.2 °C 29.78in /  1008.4hPa WSW 0.1mph /  0.2km/h 6mph /  9.7km/h 84.4% 0.00in /  0mm 195 W/m2
08:59 49.9 °F /  9.9 °C 45.3 °F /  7.4 °C 29.77in /  1008hPa Calm   6mph /  9.7km/h 84.2% 0.00in /  0mm 97 W/m2
09:04 50.3 °F /  10.2 °C 45.6 °F /  7.6 °C 29.77in /  1008hPa Calm   6mph /  9.7km/h 83.9% 0.00in /  0mm 114 W/m2
09:07 50.5 °F /  10.3 °C 45.5 °F /  7.5 °C 29.77in /  1008hPa Calm     83% 0.00in /  0mm 135 W/m2
09:30 52.3 °F /  11.3 °C 46.7 °F /  8.2 °C 29.77in /  1008hPa Calm   12mph /  19.3km/h 81% 0.00in /  0mm 157 W/m2
10:00 53 °F /  11.7 °C 47 °F /  8.3 °C 29.76in /  1007.7hPa Calm   6mph /  9.7km/h 80% 0.00in /  0mm 150 W/m2
10:30 57.2 °F /  14 °C 49 °F /  9.4 °C 29.76in /  1007.7hPa West 1mph /  1.6km/h 5mph /  8km/h 74% 0.00in /  0mm 383 W/m2
11:00 61.7 °F /  16.5 °C 50.2 °F /  10.1 °C 29.75in /  1007.3hPa Calm   5mph /  8km/h 66% 0.00in /  0mm 648 W/m2
11:30 60.2 °F /  15.7 °C 47.6 °F /  8.7 °C 29.75in /  1007.3hPa NW 2mph /  3.2km/h 13mph /  20.9km/h 63% 0.00in /  0mm 220 W/m2
12:04 58.3 °F /  14.6 °C 47.8 °F /  8.8 °C 29.75in /  1007.3hPa Calm   2mph /  3.2km/h 68% 0.00in /  0mm 153 W/m2
12:09 58.3 °F /  14.6 °C 47.6 °F /  8.7 °C 29.76in /  1007.7hPa WNW 1.5mph /  2.4km/h 9mph /  14.5km/h 67.3% 0.00in /  0mm 153 W/m2
12:14 58.2 °F /  14.6 °C 47.3 °F /  8.5 °C 29.76in /  1007.7hPa WNW 1.5mph /  2.4km/h 9mph /  14.5km/h 67% 0.00in /  0mm 151 W/m2
12:19 58 °F /  14.4 °C 47.3 °F /  8.5 °C 29.75in /  1007.3hPa WNW 0.2mph /  0.3km/h 9mph /  14.5km/h 67.3% 0.00in /  0mm 169 W/m2
12:24 58 °F /  14.4 °C 47.4 °F /  8.6 °C 29.75in /  1007.3hPa WNW 0.6mph /  1km/h 9mph /  14.5km/h 67.7% 0.00in /  0mm 169 W/m2
12:29 58 °F /  14.4 °C 47.4 °F /  8.6 °C 29.75in /  1007.3hPa NW 0.8mph /  1.3km/h 9mph /  14.5km/h 67.5% 0.00in /  0mm 167 W/m2
12:34 58.1 °F /  14.5 °C 46.9 °F /  8.3 °C 29.75in /  1007.3hPa WNW 1.4mph /  2.3km/h 9mph /  14.5km/h 66.3% 0.00in /  0mm 153 W/m2
12:39 58 °F /  14.4 °C 46.8 °F /  8.2 °C 29.74in /  1007hPa WNW 0.3mph /  0.5km/h 6mph /  9.7km/h 66.3% 0.00in /  0mm 109 W/m2
12:44 58 °F /  14.4 °C 46.7 °F /  8.2 °C 29.74in /  1007hPa NW 2.7mph /  4.3km/h 10mph /  16.1km/h 65.9% 0.00in /  0mm 109 W/m2
12:49 57.8 °F /  14.3 °C 46.4 °F /  8 °C 29.74in /  1007hPa NNW 1.7mph /  2.7km/h 10mph /  16.1km/h 65.9% 0.00in /  0mm 113 W/m2
12:54 57.6 °F /  14.2 °C 47.4 °F /  8.6 °C 29.74in /  1007hPa NW 0.9mph /  1.4km/h 10mph /  16.1km/h 68.9% 0.00in /  0mm 162 W/m2
12:59 57.3 °F /  14.1 °C 47.7 °F /  8.7 °C 29.74in /  1007hPa NW 1.1mph /  1.8km/h 10mph /  16.1km/h 70.1% 0.00in /  0mm 202 W/m2
13:04 57.3 °F /  14.1 °C 47.3 °F /  8.5 °C 29.74in /  1007hPa NW 2.2mph /  3.5km/h 10mph /  16.1km/h 69.4% 0.00in /  0mm 216 W/m2
13:09 57.3 °F /  14.1 °C 46.7 °F /  8.2 °C 29.74in /  1007hPa NW 1.5mph /  2.4km/h 12mph /  19.3km/h 67.8% 0.00in /  0mm 232 W/m2
13:14 57.5 °F /  14.2 °C 46.4 °F /  8 °C 29.74in /  1007hPa WNW 2.1mph /  3.4km/h 12mph /  19.3km/h 66.5% 0.00in /  0mm 220 W/m2
13:19 57.8 °F /  14.3 °C 46.6 °F /  8.1 °C 29.74in /  1007hPa West 1.4mph /  2.3km/h 12mph /  19.3km/h 66.3% 0.00in /  0mm 232 W/m2
13:24 58 °F /  14.4 °C 46.9 °F /  8.3 °C 29.73in /  1006.7hPa West 0.5mph /  0.8km/h 12mph /  19.3km/h 66.5% 0.00in /  0mm 237 W/m2
13:29 58.2 °F /  14.6 °C 47.5 °F /  8.6 °C 29.73in /  1006.7hPa WNW 0.1mph /  0.2km/h 12mph /  19.3km/h 67.5% 0.00in /  0mm 236 W/m2
13:34 58.5 °F /  14.7 °C 47.4 °F /  8.6 °C 29.73in /  1006.7hPa WNW 1.3mph /  2.1km/h 12mph /  19.3km/h 66.4% 0.00in /  0mm 244 W/m2
13:39 58.7 °F /  14.8 °C 46.5 °F /  8.1 °C 29.73in /  1006.7hPa WNW 2.4mph /  3.9km/h 9mph /  14.5km/h 63.8% 0.00in /  0mm 278 W/m2
13:44 58.8 °F /  14.9 °C 46.1 °F /  7.8 °C 29.73in /  1006.7hPa WNW 3.8mph /  6.1km/h 10mph /  16.1km/h 62.6% 0.00in /  0mm 278 W/m2
13:49 58.7 °F /  14.8 °C 45.6 °F /  7.6 °C 29.73in /  1006.7hPa WNW 1.9mph /  3.1km/h 12mph /  19.3km/h 61.7% 0.00in /  0mm 162 W/m2
13:54 58.5 °F /  14.7 °C 45.8 °F /  7.7 °C 29.73in /  1006.7hPa WNW 1.5mph /  2.4km/h 12mph /  19.3km/h 62.5% 0.00in /  0mm 156 W/m2
13:59 58.4 °F /  14.7 °C 46.1 °F /  7.8 °C 29.73in /  1006.7hPa NW 1.3mph /  2.1km/h 12mph /  19.3km/h 63.4% 0.00in /  0mm 142 W/m2
14:04 58.2 °F /  14.6 °C 45.8 °F /  7.7 °C 29.73in /  1006.7hPa NW 0.5mph /  0.8km/h 12mph /  19.3km/h 63.1% 0.00in /  0mm 179 W/m2
14:09 58.2 °F /  14.6 °C 45.9 °F /  7.7 °C 29.73in /  1006.7hPa NW 1.7mph /  2.7km/h 7mph /  11.3km/h 63.6% 0.00in /  0mm 188 W/m2
14:14 58.3 °F /  14.6 °C 46 °F /  7.8 °C 29.73in /  1006.7hPa NW 0.6mph /  1km/h 7mph /  11.3km/h 63.5% 0.00in /  0mm 202 W/m2
14:19 58.4 °F /  14.7 °C 46.9 °F /  8.3 °C 29.73in /  1006.7hPa NW 1.8mph /  2.9km/h 8mph /  12.9km/h 65.3% 0.00in /  0mm 181 W/m2
14:24 58.6 °F /  14.8 °C 46.2 °F /  7.9 °C 29.73in /  1006.7hPa NW 1mph /  1.6km/h 10mph /  16.1km/h 63.5% 0.00in /  0mm 146 W/m2
14:29 58.5 °F /  14.7 °C 46 °F /  7.8 °C 29.73in /  1006.7hPa WNW 1.6mph /  2.6km/h 10mph /  16.1km/h 63% 0.00in /  0mm 121 W/m2
14:34 58.3 °F /  14.6 °C 45.9 °F /  7.7 °C 29.73in /  1006.7hPa NW 3.1mph /  5km/h 10mph /  16.1km/h 63.3% 0.00in /  0mm 158 W/m2
14:39 58.1 °F /  14.5 °C 46.3 °F /  7.9 °C 29.73in /  1006.7hPa NW 1.1mph /  1.8km/h 10mph /  16.1km/h 64.7% 0.00in /  0mm 415 W/m2
14:44 58.2 °F /  14.6 °C 46.4 °F /  8 °C 29.74in /  1007hPa NW 4mph /  6.4km/h 12mph /  19.3km/h 64.7% 0.00in /  0mm 380 W/m2
14:49 58.1 °F /  14.5 °C 45.6 °F /  7.6 °C 29.74in /  1007hPa NW 4.2mph /  6.8km/h 13mph /  20.9km/h 63.1% 0.00in /  0mm 193 W/m2
14:54 57.8 °F /  14.3 °C 45.2 °F /  7.3 °C 29.74in /  1007hPa NW 4.3mph /  6.9km/h 13mph /  20.9km/h 62.7% 0.00in /  0mm 209 W/m2
14:59 57.8 °F /  14.3 °C 45.4 °F /  7.4 °C 29.74in /  1007hPa WNW 3.9mph /  6.3km/h 13mph /  20.9km/h 63.4% 0.00in /  0mm 160 W/m2
15:04 57.6 °F /  14.2 °C 45.4 °F /  7.4 °C 29.75in /  1007.3hPa WNW 3.3mph /  5.3km/h 13mph /  20.9km/h 63.7% 0.00in /  0mm 128 W/m2
15:09 57.2 °F /  14 °C 45.2 °F /  7.3 °C 29.75in /  1007.3hPa WNW 5.6mph /  9km/h 15mph /  24.1km/h 64.1% 0.00in /  0mm 93 W/m2
15:14 56.6 °F /  13.7 °C 45.1 °F /  7.3 °C 29.75in /  1007.3hPa WNW 4.3mph /  6.9km/h 15mph /  24.1km/h 65.3% 0.00in /  0mm 267 W/m2
15:19 56.2 °F /  13.4 °C 45.2 °F /  7.3 °C 29.75in /  1007.3hPa WNW 6.1mph /  9.8km/h 16mph /  25.7km/h 66.5% 0.00in /  0mm 294 W/m2
15:24 56.1 °F /  13.4 °C 44.8 °F /  7.1 °C 29.75in /  1007.3hPa WNW 5.3mph /  8.5km/h 16mph /  25.7km/h 65.8% 0.00in /  0mm 323 W/m2
15:29 56.3 °F /  13.5 °C 45.6 °F /  7.6 °C 29.75in /  1007.3hPa WNW 1.9mph /  3.1km/h 16mph /  25.7km/h 67.4% 0.00in /  0mm 417 W/m2
15:34 56.8 °F /  13.8 °C 46 °F /  7.8 °C 29.75in /  1007.3hPa NW 3mph /  4.8km/h 16mph /  25.7km/h 67% 0.00in /  0mm 408 W/m2
15:39 57.2 °F /  14 °C 45.9 °F /  7.7 °C 29.75in /  1007.3hPa WNW 4.7mph /  7.6km/h 11mph /  17.7km/h 65.8% 0.00in /  0mm 192 W/m2
15:44 57.2 °F /  14 °C 45.8 °F /  7.7 °C 29.76in /  1007.7hPa NW 4mph /  6.4km/h 12mph /  19.3km/h 65.5% 0.00in /  0mm 149 W/m2
15:49 57.1 °F /  13.9 °C 46.2 °F /  7.9 °C 29.76in /  1007.7hPa NW 1mph /  1.6km/h 12mph /  19.3km/h 66.8% 0.00in /  0mm 125 W/m2
15:54 57.1 °F /  13.9 °C 46.6 °F /  8.1 °C 29.76in /  1007.7hPa NW 0.7mph /  1.1km/h 12mph /  19.3km/h 67.9% 0.00in /  0mm 88 W/m2
15:59 57.1 °F /  13.9 °C 46.3 °F /  7.9 °C 29.76in /  1007.7hPa NW 2.3mph /  3.7km/h 12mph /  19.3km/h 67.3% 0.00in /  0mm 100 W/m2
16:04 56.8 °F /  13.8 °C 44.8 °F /  7.1 °C 29.76in /  1007.7hPa NW 14mph /  22.5km/h 14mph /  22.5km/h 64% 0.00in /  0mm 58 W/m2
16:09 56.7 °F /  13.7 °C 44.6 °F /  7 °C 29.76in /  1007.7hPa NW 5mph /  8km/h 15mph /  24.1km/h 63.9% 0.00in /  0mm 60 W/m2
16:14 56.5 °F /  13.6 °C 44.9 °F /  7.2 °C 29.76in /  1007.7hPa NW 4.7mph /  7.6km/h 15mph /  24.1km/h 65% 0.00in /  0mm 79 W/m2
16:19 56.4 °F /  13.6 °C 44.7 °F /  7.1 °C 29.77in /  1008hPa NW 7.9mph /  12.7km/h 15mph /  24.1km/h 64.7% 0.00in /  0mm 79 W/m2
16:24 56.1 °F /  13.4 °C 44.1 °F /  6.7 °C 29.77in /  1008hPa NW 4.8mph /  7.7km/h 16mph /  25.7km/h 64% 0.00in /  0mm 51 W/m2
16:29 55.9 °F /  13.3 °C 44 °F /  6.7 °C 29.77in /  1008hPa NW 2.9mph /  4.7km/h 16mph /  25.7km/h 64.3% 0.00in /  0mm 39 W/m2
16:34 55.7 °F /  13.2 °C 44.2 °F /  6.8 °C 29.77in /  1008hPa NW 4.7mph /  7.6km/h 16mph /  25.7km/h 65.2% 0.00in /  0mm 26 W/m2
16:39 55.5 °F /  13.1 °C 44.3 °F /  6.8 °C 29.77in /  1008hPa WNW 4.3mph /  6.9km/h 16mph /  25.7km/h 66% 0.00in /  0mm 25 W/m2
16:44 55.3 °F /  12.9 °C 44.4 °F /  6.9 °C 29.77in /  1008hPa WNW 4.3mph /  6.9km/h 16mph /  25.7km/h 66.5% 0.00in /  0mm 95 W/m2
16:49 55.2 °F /  12.9 °C 44.6 °F /  7 °C 29.77in /  1008hPa WNW 3.4mph /  5.5km/h 16mph /  25.7km/h 67.3% 0.00in /  0mm 95 W/m2
16:54 55.2 °F /  12.9 °C 44.5 °F /  6.9 °C 29.77in /  1008hPa WNW 5mph /  8km/h 16mph /  25.7km/h 67.1% 0.00in /  0mm 62 W/m2
16:59 55.1 °F /  12.8 °C 44.1 °F /  6.7 °C 29.77in /  1008hPa NW 4.3mph /  6.9km/h 16mph /  25.7km/h 66.4% 0.00in /  0mm 40 W/m2
17:04 55 °F /  12.8 °C 44.1 °F /  6.7 °C 29.78in /  1008.4hPa WNW 6.9mph /  11.1km/h 16mph /  25.7km/h 66.7% 0.00in /  0mm 18 W/m2
17:09 54.8 °F /  12.7 °C 44 °F /  6.7 °C 29.78in /  1008.4hPa WNW 4.1mph /  6.6km/h 14mph /  22.5km/h 66.8% 0.00in /  0mm 21 W/m2
17:14 54.6 °F /  12.6 °C 43.8 °F /  6.6 °C 29.78in /  1008.4hPa WNW 4.8mph /  7.7km/h 14mph /  22.5km/h 67% 0.00in /  0mm 23 W/m2
17:19 54.3 °F /  12.4 °C 43.7 °F /  6.5 °C 29.78in /  1008.4hPa WNW 3.3mph /  5.3km/h 14mph /  22.5km/h 67.3% 0.00in /  0mm 21 W/m2
17:24 54.2 °F /  12.3 °C 43.6 °F /  6.4 °C 29.78in /  1008.4hPa WNW 7.9mph /  12.7km/h 15mph /  24.1km/h 67.3% 0.00in /  0mm 23 W/m2
17:29 54.1 °F /  12.3 °C 43 °F /  6.1 °C 29.79in /  1008.7hPa WNW 5mph /  8km/h 15mph /  24.1km/h 66% 0.00in /  0mm 23 W/m2
17:34 54.1 °F /  12.3 °C 43.2 °F /  6.2 °C 29.79in /  1008.7hPa WNW 2.8mph /  4.5km/h 15mph /  24.1km/h 66.4% 0.00in /  0mm 19 W/m2
17:39 54 °F /  12.2 °C 43.3 °F /  6.3 °C 29.79in /  1008.7hPa WNW 2.9mph /  4.7km/h 11mph /  17.7km/h 67% 0.00in /  0mm 16 W/m2
17:44 53.9 °F /  12.2 °C 43.4 °F /  6.3 °C 29.79in /  1008.7hPa WNW 4.8mph /  7.7km/h 11mph /  17.7km/h 67.4% 0.00in /  0mm 11 W/m2
17:49 53.7 °F /  12.1 °C 43.6 °F /  6.4 °C 29.80in /  1009hPa NW 3.1mph /  5km/h 11mph /  17.7km/h 68.5% 0.00in /  0mm 5 W/m2
17:54 53.4 °F /  11.9 °C 43.4 °F /  6.3 °C 29.80in /  1009hPa WNW 3.9mph /  6.3km/h 11mph /  17.7km/h 68.7% 0.00in /  0mm 5 W/m2
17:59 53.2 °F /  11.8 °C 43.3 °F /  6.3 °C 29.80in /  1009hPa WNW 4.3mph /  6.9km/h 14mph /  22.5km/h 69% 0.00in /  0mm 0 W/m2
18:04 52.9 °F /  11.6 °C 42.8 °F /  6 °C 29.81in /  1009.4hPa NW 3.3mph /  5.3km/h 14mph /  22.5km/h 68.4% 0.00in /  0mm 0 W/m2
18:09 52.6 °F /  11.4 °C 42.6 °F /  5.9 °C 29.81in /  1009.4hPa WNW 5.1mph /  8.2km/h 14mph /  22.5km/h 68.6% 0.00in /  0mm 0 W/m2
18:14 52.5 °F /  11.4 °C 42.5 °F /  5.8 °C 29.81in /  1009.4hPa WNW 4mph /  6.4km/h 14mph /  22.5km/h 68.8% 0.00in /  0mm 0 W/m2
18:19 52.3 °F /  11.3 °C 42.1 °F /  5.6 °C 29.81in /  1009.4hPa NW 5.1mph /  8.2km/h 14mph /  22.5km/h 68.1% 0.00in /  0mm 0 W/m2
18:24 52.2 °F /  11.2 °C 42.2 °F /  5.7 °C 29.81in /  1009.4hPa WNW 3.5mph /  5.6km/h 14mph /  22.5km/h 68.5% 0.00in /  0mm 0 W/m2
18:29 52.2 °F /  11.2 °C 42.2 °F /  5.7 °C 29.82in /  1009.7hPa WNW 4.9mph /  7.9km/h 14mph /  22.5km/h 68.7% 0.00in /  0mm 0 W/m2
18:34 52.1 °F /  11.2 °C 42.2 °F /  5.7 °C 29.82in /  1009.7hPa NW 3.8mph /  6.1km/h 14mph /  22.5km/h 69% 0.00in /  0mm 0 W/m2
18:39 52 °F /  11.1 °C 42.1 °F /  5.6 °C 29.82in /  1009.7hPa WNW 3.8mph /  6.1km/h 16mph /  25.7km/h 69% 0.00in /  0mm 0 W/m2
18:44 51.8 °F /  11 °C 42 °F /  5.6 °C 29.82in /  1009.7hPa WNW 4.4mph /  7.1km/h 16mph /  25.7km/h 69% 0.00in /  0mm 0 W/m2
18:49 51.7 °F /  10.9 °C 41.9 °F /  5.5 °C 29.82in /  1009.7hPa NW 3.5mph /  5.6km/h 16mph /  25.7km/h 69.1% 0.00in /  0mm 0 W/m2
18:54 51.6 °F /  10.9 °C 42.2 °F /  5.7 °C 29.82in /  1009.7hPa NW 2.8mph /  4.5km/h 16mph /  25.7km/h 70% 0.00in /  0mm 0 W/m2
18:59 51.5 °F /  10.8 °C 42.1 °F /  5.6 °C 29.83in /  1010hPa NW 2.1mph /  3.4km/h 16mph /  25.7km/h 70% 0.00in /  0mm 0 W/m2
19:04 51.4 °F /  10.8 °C 42.1 °F /  5.6 °C 29.83in /  1010hPa NW 0.9mph /  1.4km/h 16mph /  25.7km/h 70.5% 0.00in /  0mm 0 W/m2
19:09 51.2 °F /  10.7 °C 42.1 °F /  5.6 °C 29.83in /  1010hPa WNW 4.3mph /  6.9km/h 14mph /  22.5km/h 71% 0.00in /  0mm 0 W/m2
19:14 51 °F /  10.6 °C 42.1 °F /  5.6 °C 29.83in /  1010hPa NW 2.4mph /  3.9km/h 14mph /  22.5km/h 71.6% 0.00in /  0mm 0 W/m2
19:19 50.7 °F /  10.4 °C 42 °F /  5.6 °C 29.83in /  1010hPa NW 0.7mph /  1.1km/h 14mph /  22.5km/h 72% 0.00in /  0mm 0 W/m2
19:24 50.5 °F /  10.3 °C 42.2 °F /  5.7 °C 29.84in /  1010.4hPa NW 0.5mph /  0.8km/h 14mph /  22.5km/h 72.9% 0.00in /  0mm 0 W/m2
19:29 50.4 °F /  10.2 °C 42 °F /  5.6 °C 29.84in /  1010.4hPa WNW 2mph /  3.2km/h 14mph /  22.5km/h 73% 0.00in /  0mm 0 W/m2
19:34 50.1 °F /  10.1 °C 41.8 °F /  5.4 °C 29.84in /  1010.4hPa WNW 5.2mph /  8.4km/h 16mph /  25.7km/h 73% 0.00in /  0mm 0 W/m2
19:39 49.9 °F /  9.9 °C 41.6 °F /  5.3 °C 29.84in /  1010.4hPa WNW 4.7mph /  7.6km/h 16mph /  25.7km/h 72.8% 0.00in /  0mm 0 W/m2
19:44 49.8 °F /  9.9 °C 41.4 °F /  5.2 °C 29.84in /  1010.4hPa WNW 4.4mph /  7.1km/h 16mph /  25.7km/h 72.5% 0.00in /  0mm 0 W/m2
19:49 49.8 °F /  9.9 °C 41.1 °F /  5.1 °C 29.84in /  1010.4hPa WNW 5.2mph /  8.4km/h 16mph /  25.7km/h 72% 0.00in /  0mm 0 W/m2
19:54 49.7 °F /  9.8 °C 41.1 °F /  5.1 °C 29.84in /  1010.4hPa WNW 6.1mph /  9.8km/h 16mph /  25.7km/h 72% 0.00in /  0mm 0 W/m2
19:59 49.7 °F /  9.8 °C 41 °F /  5 °C 29.84in /  1010.4hPa WNW 4.9mph /  7.9km/h 17mph /  27.4km/h 72% 0.00in /  0mm 0 W/m2
20:00 49.7 °F /  9.8 °C 41.1 °F /  5.1 °C 29.83in /  1010hPa NW 3mph /  4.8km/h 17mph /  27.4km/h 72% 0.00in /  0mm 0 W/m2
20:09 49.5 °F /  9.7 °C 40.9 °F /  4.9 °C 29.84in /  1010.4hPa WNW 6.6mph /  10.6km/h 13mph /  20.9km/h 72% 0.00in /  0mm 0 W/m2
20:14 49.5 °F /  9.7 °C 41 °F /  5 °C 29.84in /  1010.4hPa WNW 4.3mph /  6.9km/h 13mph /  20.9km/h 72.3% 0.00in /  0mm 0 W/m2
20:19 49.3 °F /  9.6 °C 41.1 °F /  5.1 °C 29.85in /  1010.7hPa WNW 6.2mph /  10km/h 13mph /  20.9km/h 73% 0.00in /  0mm 0 W/m2
20:24 49.2 °F /  9.6 °C 41 °F /  5 °C 29.85in /  1010.7hPa WNW 5.1mph /  8.2km/h 15mph /  24.1km/h 73% 0.00in /  0mm 0 W/m2
20:29 49.2 °F /  9.6 °C 41 °F /  5 °C 29.85in /  1010.7hPa WNW 6.1mph /  9.8km/h 15mph /  24.1km/h 73.1% 0.00in /  0mm 0 W/m2
20:34 49.1 °F /  9.5 °C 41.2 °F /  5.1 °C 29.85in /  1010.7hPa WNW 4.9mph /  7.9km/h 15mph /  24.1km/h 73.9% 0.00in /  0mm 0 W/m2
20:39 49 °F /  9.4 °C 41.1 °F /  5.1 °C 29.85in /  1010.7hPa WNW 4.3mph /  6.9km/h 14mph /  22.5km/h 74% 0.00in /  0mm 0 W/m2
20:44 48.9 °F /  9.4 °C 41 °F /  5 °C 29.85in /  1010.7hPa West 4mph /  6.4km/h 14mph /  22.5km/h 74% 0.00in /  0mm 0 W/m2
20:49 48.8 °F /  9.3 °C 40.9 °F /  4.9 °C 29.86in /  1011.1hPa WNW 4.9mph /  7.9km/h 14mph /  22.5km/h 74% 0.00in /  0mm 0 W/m2
20:54 48.7 °F /  9.3 °C 40.8 °F /  4.9 °C 29.85in /  1010.7hPa WNW 5mph /  8km/h 14mph /  22.5km/h 74% 0.00in /  0mm 0 W/m2
20:59 48.6 °F /  9.2 °C 40.7 °F /  4.8 °C 29.86in /  1011.1hPa WNW 3.4mph /  5.5km/h 14mph /  22.5km/h 74% 0.00in /  0mm 0 W/m2
21:04 48.6 °F /  9.2 °C 40.7 °F /  4.8 °C 29.86in /  1011.1hPa WNW 1.9mph /  3.1km/h 14mph /  22.5km/h 74% 0.00in /  0mm 0 W/m2
21:09 48.5 °F /  9.2 °C 40.6 °F /  4.8 °C 29.86in /  1011.1hPa WNW 2mph /  3.2km/h 11mph /  17.7km/h 74% 0.00in /  0mm 0 W/m2
21:14 48.5 °F /  9.2 °C 40.6 °F /  4.8 °C 29.86in /  1011.1hPa WNW 2.4mph /  3.9km/h 12mph /  19.3km/h 74% 0.00in /  0mm 0 W/m2
21:19 48.4 °F /  9.1 °C 40.5 °F /  4.7 °C 29.86in /  1011.1hPa West 1mph /  1.6km/h 12mph /  19.3km/h 74% 0.00in /  0mm 0 W/m2
21:24 48.3 °F /  9.1 °C 40.6 °F /  4.8 °C 29.86in /  1011.1hPa WNW 2.1mph /  3.4km/h 12mph /  19.3km/h 74.8% 0.00in /  0mm 0 W/m2
21:29 48.1 °F /  8.9 °C 40.6 °F /  4.8 °C 29.86in /  1011.1hPa WNW 3mph /  4.8km/h 12mph /  19.3km/h 75% 0.00in /  0mm 0 W/m2
21:34 48 °F /  8.9 °C 40.4 °F /  4.7 °C 29.86in /  1011.1hPa WNW 4.8mph /  7.7km/h 12mph /  19.3km/h 74.9% 0.00in /  0mm 0 W/m2
21:39 47.9 °F /  8.8 °C 40.4 °F /  4.7 °C 29.86in /  1011.1hPa WNW 0.6mph /  1km/h 12mph /  19.3km/h 75% 0.00in /  0mm 0 W/m2
21:44 47.9 °F /  8.8 °C 40.4 °F /  4.7 °C 29.86in /  1011.1hPa NW 0.4mph /  0.6km/h 12mph /  19.3km/h 75% 0.00in /  0mm 0 W/m2
21:49 47.8 °F /  8.8 °C 40.3 °F /  4.6 °C 29.87in /  1011.4hPa WSW 0.5mph /  0.8km/h 12mph /  19.3km/h 75% 0.00in /  0mm 0 W/m2
21:54 47.7 °F /  8.7 °C 40.2 °F /  4.6 °C 29.87in /  1011.4hPa WNW 1mph /  1.6km/h 12mph /  19.3km/h 75% 0.00in /  0mm 0 W/m2
21:59 47.6 °F /  8.7 °C 40.1 °F /  4.5 °C 29.87in /  1011.4hPa NW 1.1mph /  1.8km/h 12mph /  19.3km/h 75% 0.00in /  0mm 0 W/m2
22:04 47.6 °F /  8.7 °C 40.1 °F /  4.5 °C 29.87in /  1011.4hPa NW 2.1mph /  3.4km/h 12mph /  19.3km/h 75% 0.00in /  0mm 0 W/m2
22:09 47.6 °F /  8.7 °C 40.1 °F /  4.5 °C 29.87in /  1011.4hPa NNW 0.4mph /  0.6km/h 10mph /  16.1km/h 75% 0.00in /  0mm 0 W/m2
22:14 47.5 °F /  8.6 °C 40 °F /  4.4 °C 29.87in /  1011.4hPa NW 2mph /  3.2km/h 10mph /  16.1km/h 75% 0.00in /  0mm 0 W/m2
22:19 47.5 °F /  8.6 °C 40 °F /  4.4 °C 29.87in /  1011.4hPa NNW 0.4mph /  0.6km/h 10mph /  16.1km/h 75% 0.00in /  0mm 0 W/m2
22:24 47.4 °F /  8.6 °C 39.9 °F /  4.4 °C 29.87in /  1011.4hPa NNW 0.5mph /  0.8km/h 10mph /  16.1km/h 75% 0.00in /  0mm 0 W/m2
22:29 47.4 °F /  8.6 °C 39.9 °F /  4.4 °C 29.87in /  1011.4hPa NNW 0.5mph /  0.8km/h 10mph /  16.1km/h 75% 0.00in /  0mm 0 W/m2
22:34 47.3 °F /  8.5 °C 39.8 °F /  4.3 °C 29.87in /  1011.4hPa Calm   10mph /  16.1km/h 75% 0.00in /  0mm 0 W/m2
22:39 47.2 °F /  8.4 °C 39.9 °F /  4.4 °C 29.88in /  1011.7hPa NNW 0.5mph /  0.8km/h 4mph /  6.4km/h 75.7% 0.00in /  0mm 0 W/m2
22:44 47.1 °F /  8.4 °C 39.9 °F /  4.4 °C 29.88in /  1011.7hPa NNW 0.2mph /  0.3km/h 4mph /  6.4km/h 76% 0.00in /  0mm 0 W/m2
22:49 46.9 °F /  8.3 °C 39.8 °F /  4.3 °C 29.88in /  1011.7hPa NNW 0.4mph /  0.6km/h 4mph /  6.4km/h 76% 0.00in /  0mm 0 W/m2
22:54 46.8 °F /  8.2 °C 39.7 °F /  4.3 °C 29.88in /  1011.7hPa NW 0.6mph /  1km/h 5mph /  8km/h 76% 0.00in /  0mm 0 W/m2
22:59 46.8 °F /  8.2 °C 39.7 °F /  4.3 °C 29.88in /  1011.7hPa WNW 1.2mph /  1.9km/h 7mph /  11.3km/h 76.2% 0.00in /  0mm 0 W/m2
23:04 46.7 °F /  8.2 °C 39.9 °F /  4.4 °C 29.88in /  1011.7hPa WNW 0.2mph /  0.3km/h 7mph /  11.3km/h 77% 0.00in /  0mm 0 W/m2
23:09 46.6 °F /  8.1 °C 39.8 °F /  4.3 °C 29.88in /  1011.7hPa WNW 0.5mph /  0.8km/h 5mph /  8km/h 77% 0.00in /  0mm 0 W/m2
23:14 46.5 °F /  8.1 °C 39.7 °F /  4.3 °C 29.88in /  1011.7hPa Calm   5mph /  8km/h 77% 0.00in /  0mm 0 W/m2
23:19 46.5 °F /  8.1 °C 39.7 °F /  4.3 °C 29.88in /  1011.7hPa Calm   5mph /  8km/h 77% 0.00in /  0mm 0 W/m2
23:24 46.4 °F /  8 °C 39.7 °F /  4.3 °C 29.88in /  1011.7hPa Calm   5mph /  8km/h 77.4% 0.00in /  0mm 0 W/m2
23:29 46.3 °F /  7.9 °C 39.8 °F /  4.3 °C 29.88in /  1011.7hPa WNW 0.4mph /  0.6km/h 5mph /  8km/h 78% 0.00in /  0mm 0 W/m2
23:34 46.2 °F /  7.9 °C 39.7 °F /  4.3 °C 29.88in /  1011.7hPa WNW 1.1mph /  1.8km/h 5mph /  8km/h 78% 0.00in /  0mm 0 W/m2
23:39 46.1 °F /  7.8 °C 39.7 °F /  4.3 °C 29.89in /  1012.1hPa WNW 0.5mph /  0.8km/h 5mph /  8km/h 78% 0.00in /  0mm 0 W/m2
23:44 46.1 °F /  7.8 °C 39.6 °F /  4.2 °C 29.88in /  1011.7hPa WNW 0.1mph /  0.2km/h 5mph /  8km/h 78% 0.00in /  0mm 0 W/m2
23:49 46.1 °F /  7.8 °C 39.6 °F /  4.2 °C 29.89in /  1012.1hPa WNW 0.3mph /  0.5km/h 5mph /  8km/h 78% 0.00in /  0mm 0 W/m2
23:54 46 °F /  7.8 °C 39.6 °F /  4.2 °C 29.89in /  1012.1hPa WNW 0.7mph /  1.1km/h 5mph /  8km/h 78% 0.00in /  0mm 0 W/m2
23:59 46 °F /  7.8 °C 39.6 °F /  4.2 °C 29.88in /  1011.7hPa NW 1.9mph /  3.1km/h 10mph /  16.1km/h 78.3% 0.00in /  0mm 0 W/m2
Hartford County Weather
Compliments of Weather Underground - 4 mb